sensor_id;sensor_type;location;lat;lon;timestamp;P1;durP1;ratioP1;P2;durP2;ratioP2
12601;SDS011;30282;16.436;99.370;2023-04-23T00:00:12;66.27;;;55.53;;
12601;SDS011;30282;16.436;99.370;2023-04-23T00:02:43;72.07;;;56.00;;
12601;SDS011;30282;16.436;99.370;2023-04-23T00:05:14;63.77;;;56.20;;
12601;SDS011;30282;16.436;99.370;2023-04-23T00:07:44;68.10;;;57.47;;
12601;SDS011;30282;16.436;99.370;2023-04-23T00:10:13;71.53;;;57.70;;
12601;SDS011;30282;16.436;99.370;2023-04-23T00:12:43;70.30;;;56.77;;
12601;SDS011;30282;16.436;99.370;2023-04-23T00:15:16;78.00;;;60.40;;
12601;SDS011;30282;16.436;99.370;2023-04-23T00:17:46;77.53;;;59.37;;
12601;SDS011;30282;16.436;99.370;2023-04-23T00:20:16;79.77;;;63.53;;
12601;SDS011;30282;16.436;99.370;2023-04-23T00:22:45;81.70;;;62.30;;
12601;SDS011;30282;16.436;99.370;2023-04-23T00:25:14;85.57;;;65.70;;
12601;SDS011;30282;16.436;99.370;2023-04-23T00:27:43;88.43;;;61.40;;
12601;SDS011;30282;16.436;99.370;2023-04-23T00:30:14;76.00;;;62.47;;
12601;SDS011;30282;16.436;99.370;2023-04-23T00:32:43;79.23;;;60.90;;
12601;SDS011;30282;16.436;99.370;2023-04-23T00:35:14;83.33;;;63.33;;
12601;SDS011;30282;16.436;99.370;2023-04-23T00:37:43;74.83;;;61.87;;
12601;SDS011;30282;16.436;99.370;2023-04-23T00:40:12;85.83;;;64.10;;
12601;SDS011;30282;16.436;99.370;2023-04-23T00:42:42;78.33;;;62.63;;
12601;SDS011;30282;16.436;99.370;2023-04-23T00:45:12;89.67;;;60.13;;
12601;SDS011;30282;16.436;99.370;2023-04-23T00:47:42;96.90;;;64.00;;
12601;SDS011;30282;16.436;99.370;2023-04-23T00:50:12;83.70;;;60.03;;
12601;SDS011;30282;16.436;99.370;2023-04-23T00:52:41;76.90;;;60.00;;
12601;SDS011;30282;16.436;99.370;2023-04-23T00:55:11;80.63;;;61.90;;
12601;SDS011;30282;16.436;99.370;2023-04-23T00:57:40;74.33;;;61.10;;
12601;SDS011;30282;16.436;99.370;2023-04-23T01:00:10;64.40;;;57.13;;
12601;SDS011;30282;16.436;99.370;2023-04-23T01:02:42;86.17;;;58.13;;
12601;SDS011;30282;16.436;99.370;2023-04-23T01:05:13;77.97;;;60.23;;
12601;SDS011;30282;16.436;99.370;2023-04-23T01:07:44;84.13;;;59.80;;
12601;SDS011;30282;16.436;99.370;2023-04-23T01:10:14;72.17;;;58.70;;
12601;SDS011;30282;16.436;99.370;2023-04-23T01:12:44;71.07;;;58.10;;
12601;SDS011;30282;16.436;99.370;2023-04-23T01:15:13;81.23;;;61.40;;
12601;SDS011;30282;16.436;99.370;2023-04-23T01:17:44;82.73;;;60.60;;
12601;SDS011;30282;16.436;99.370;2023-04-23T01:20:13;65.77;;;58.43;;
12601;SDS011;30282;16.436;99.370;2023-04-23T01:22:44;73.50;;;59.90;;
12601;SDS011;30282;16.436;99.370;2023-04-23T01:25:13;68.53;;;58.80;;
12601;SDS011;30282;16.436;99.370;2023-04-23T01:27:42;67.27;;;60.00;;
12601;SDS011;30282;16.436;99.370;2023-04-23T01:30:14;84.23;;;62.60;;
12601;SDS011;30282;16.436;99.370;2023-04-23T01:32:44;66.23;;;58.50;;
12601;SDS011;30282;16.436;99.370;2023-04-23T01:35:13;74.03;;;58.53;;
12601;SDS011;30282;16.436;99.370;2023-04-23T01:37:44;75.93;;;57.57;;
12601;SDS011;30282;16.436;99.370;2023-04-23T01:40:16;82.17;;;60.00;;
12601;SDS011;30282;16.436;99.370;2023-04-23T01:42:45;69.03;;;55.50;;
12601;SDS011;30282;16.436;99.370;2023-04-23T01:45:15;67.83;;;58.40;;
12601;SDS011;30282;16.436;99.370;2023-04-23T01:47:45;76.93;;;58.10;;
12601;SDS011;30282;16.436;99.370;2023-04-23T01:50:15;69.17;;;54.87;;
12601;SDS011;30282;16.436;99.370;2023-04-23T01:52:45;72.40;;;55.27;;
12601;SDS011;30282;16.436;99.370;2023-04-23T01:55:14;64.93;;;56.57;;
12601;SDS011;30282;16.436;99.370;2023-04-23T01:57:45;73.57;;;56.13;;
12601;SDS011;30282;16.436;99.370;2023-04-23T02:00:14;66.60;;;55.67;;
12601;SDS011;30282;16.436;99.370;2023-04-23T02:02:47;72.13;;;56.37;;
12601;SDS011;30282;16.436;99.370;2023-04-23T02:05:18;67.37;;;58.33;;
12601;SDS011;30282;16.436;99.370;2023-04-23T02:07:49;73.20;;;62.73;;
12601;SDS011;30282;16.436;99.370;2023-04-23T02:10:19;74.90;;;62.10;;
12601;SDS011;30282;16.436;99.370;2023-04-23T02:12:48;72.37;;;60.53;;
12601;SDS011;30282;16.436;99.370;2023-04-23T02:15:19;85.33;;;58.77;;
12601;SDS011;30282;16.436;99.370;2023-04-23T02:17:48;76.10;;;58.10;;
12601;SDS011;30282;16.436;99.370;2023-04-23T02:20:18;77.10;;;60.67;;
12601;SDS011;30282;16.436;99.370;2023-04-23T02:22:49;81.57;;;63.70;;
12601;SDS011;30282;16.436;99.370;2023-04-23T02:25:18;78.93;;;61.40;;
12601;SDS011;30282;16.436;99.370;2023-04-23T02:27:48;72.97;;;57.90;;
12601;SDS011;30282;16.436;99.370;2023-04-23T02:30:17;79.00;;;58.93;;
12601;SDS011;30282;16.436;99.370;2023-04-23T02:32:47;73.57;;;58.23;;
12601;SDS011;30282;16.436;99.370;2023-04-23T02:35:19;71.33;;;60.90;;
12601;SDS011;30282;16.436;99.370;2023-04-23T02:37:50;73.40;;;62.23;;
12601;SDS011;30282;16.436;99.370;2023-04-23T02:40:19;79.57;;;59.93;;
12601;SDS011;30282;16.436;99.370;2023-04-23T02:42:48;68.23;;;60.53;;
12601;SDS011;30282;16.436;99.370;2023-04-23T02:45:17;82.73;;;59.93;;
12601;SDS011;30282;16.436;99.370;2023-04-23T02:47:46;67.17;;;58.90;;
12601;SDS011;30282;16.436;99.370;2023-04-23T02:50:18;76.50;;;61.10;;
12601;SDS011;30282;16.436;99.370;2023-04-23T02:52:47;66.87;;;59.37;;
12601;SDS011;30282;16.436;99.370;2023-04-23T02:55:17;75.33;;;61.67;;
12601;SDS011;30282;16.436;99.370;2023-04-23T02:57:47;72.00;;;59.67;;
12601;SDS011;30282;16.436;99.370;2023-04-23T03:00:16;74.57;;;65.40;;
12601;SDS011;30282;16.436;99.370;2023-04-23T03:02:48;76.23;;;62.00;;
12601;SDS011;30282;16.436;99.370;2023-04-23T03:05:17;76.03;;;59.13;;
12601;SDS011;30282;16.436;99.370;2023-04-23T03:07:46;76.90;;;61.00;;
12601;SDS011;30282;16.436;99.370;2023-04-23T03:10:17;74.17;;;63.97;;
12601;SDS011;30282;16.436;99.370;2023-04-23T03:12:46;73.47;;;65.30;;
12601;SDS011;30282;16.436;99.370;2023-04-23T03:15:15;76.83;;;66.00;;
12601;SDS011;30282;16.436;99.370;2023-04-23T03:17:45;74.53;;;63.07;;
12601;SDS011;30282;16.436;99.370;2023-04-23T03:20:15;75.67;;;61.80;;
12601;SDS011;30282;16.436;99.370;2023-04-23T03:22:45;66.67;;;59.50;;
12601;SDS011;30282;16.436;99.370;2023-04-23T03:25:18;83.43;;;67.70;;
12601;SDS011;30282;16.436;99.370;2023-04-23T03:27:49;77.40;;;63.17;;
12601;SDS011;30282;16.436;99.370;2023-04-23T03:30:18;73.37;;;60.10;;
12601;SDS011;30282;16.436;99.370;2023-04-23T03:32:49;94.93;;;72.23;;
12601;SDS011;30282;16.436;99.370;2023-04-23T03:35:19;87.23;;;62.73;;
12601;SDS011;30282;16.436;99.370;2023-04-23T03:37:48;87.37;;;65.20;;
12601;SDS011;30282;16.436;99.370;2023-04-23T03:40:19;77.37;;;65.37;;
12601;SDS011;30282;16.436;99.370;2023-04-23T03:42:48;70.50;;;58.80;;
12601;SDS011;30282;16.436;99.370;2023-04-23T03:45:22;67.80;;;57.47;;
12601;SDS011;30282;16.436;99.370;2023-04-23T03:47:52;78.60;;;59.50;;
12601;SDS011;30282;16.436;99.370;2023-04-23T03:50:21;74.37;;;58.30;;
12601;SDS011;30282;16.436;99.370;2023-04-23T03:52:50;70.03;;;56.17;;
12601;SDS011;30282;16.436;99.370;2023-04-23T03:55:24;82.30;;;60.37;;
12601;SDS011;30282;16.436;99.370;2023-04-23T03:57:53;68.63;;;57.50;;
12601;SDS011;30282;16.436;99.370;2023-04-23T04:00:24;64.00;;;57.10;;
12601;SDS011;30282;16.436;99.370;2023-04-23T04:02:53;72.40;;;57.70;;
12601;SDS011;30282;16.436;99.370;2023-04-23T04:05:22;61.47;;;50.87;;
12601;SDS011;30282;16.436;99.370;2023-04-23T04:07:51;71.57;;;56.53;;
12601;SDS011;30282;16.436;99.370;2023-04-23T04:10:20;64.60;;;56.80;;
12601;SDS011;30282;16.436;99.370;2023-04-23T04:12:51;62.67;;;56.03;;
12601;SDS011;30282;16.436;99.370;2023-04-23T04:15:21;68.50;;;56.10;;
12601;SDS011;30282;16.436;99.370;2023-04-23T04:17:50;62.10;;;53.27;;
12601;SDS011;30282;16.436;99.370;2023-04-23T04:20:19;64.93;;;54.07;;
12601;SDS011;30282;16.436;99.370;2023-04-23T04:22:48;61.63;;;54.27;;
12601;SDS011;30282;16.436;99.370;2023-04-23T04:25:17;61.67;;;54.80;;
12601;SDS011;30282;16.436;99.370;2023-04-23T04:27:47;61.97;;;54.90;;
12601;SDS011;30282;16.436;99.370;2023-04-23T04:30:18;60.73;;;54.10;;
12601;SDS011;30282;16.436;99.370;2023-04-23T04:32:47;59.33;;;52.90;;
12601;SDS011;30282;16.436;99.370;2023-04-23T04:35:16;57.80;;;51.43;;
12601;SDS011;30282;16.436;99.370;2023-04-23T04:37:45;62.50;;;53.03;;
12601;SDS011;30282;16.436;99.370;2023-04-23T04:40:18;60.50;;;53.97;;
12601;SDS011;30282;16.436;99.370;2023-04-23T04:42:47;59.27;;;51.67;;
12601;SDS011;30282;16.436;99.370;2023-04-23T04:45:19;122.47;;;55.77;;
12601;SDS011;30282;16.436;99.370;2023-04-23T04:47:48;57.70;;;50.40;;
12601;SDS011;30282;16.436;99.370;2023-04-23T04:50:17;62.67;;;53.20;;
12601;SDS011;30282;16.436;99.370;2023-04-23T04:52:47;59.93;;;53.43;;
12601;SDS011;30282;16.436;99.370;2023-04-23T04:55:16;64.23;;;50.80;;
12601;SDS011;30282;16.436;99.370;2023-04-23T04:57:45;65.67;;;52.97;;
12601;SDS011;30282;16.436;99.370;2023-04-23T05:00:23;58.60;;;50.43;;
12601;SDS011;30282;16.436;99.370;2023-04-23T05:02:54;60.47;;;53.90;;
12601;SDS011;30282;16.436;99.370;2023-04-23T05:05:24;58.20;;;52.10;;
12601;SDS011;30282;16.436;99.370;2023-04-23T05:07:53;54.70;;;49.13;;
12601;SDS011;30282;16.436;99.370;2023-04-23T05:10:23;67.33;;;49.80;;
12601;SDS011;30282;16.436;99.370;2023-04-23T05:12:53;57.20;;;48.30;;
12601;SDS011;30282;16.436;99.370;2023-04-23T05:15:24;59.93;;;50.40;;
12601;SDS011;30282;16.436;99.370;2023-04-23T05:17:55;63.53;;;48.53;;
12601;SDS011;30282;16.436;99.370;2023-04-23T05:20:24;71.93;;;51.20;;
12601;SDS011;30282;16.436;99.370;2023-04-23T05:22:53;56.43;;;48.67;;
12601;SDS011;30282;16.436;99.370;2023-04-23T05:25:24;60.40;;;47.40;;
12601;SDS011;30282;16.436;99.370;2023-04-23T05:27:53;52.73;;;46.80;;
12601;SDS011;30282;16.436;99.370;2023-04-23T05:30:24;52.47;;;46.90;;
12601;SDS011;30282;16.436;99.370;2023-04-23T05:32:53;62.17;;;47.43;;
12601;SDS011;30282;16.436;99.370;2023-04-23T05:35:22;88.43;;;47.83;;
12601;SDS011;30282;16.436;99.370;2023-04-23T05:37:54;54.33;;;46.07;;
12601;SDS011;30282;16.436;99.370;2023-04-23T05:40:23;56.10;;;45.70;;
12601;SDS011;30282;16.436;99.370;2023-04-23T05:42:52;58.80;;;46.33;;
12601;SDS011;30282;16.436;99.370;2023-04-23T05:45:21;55.40;;;47.10;;
12601;SDS011;30282;16.436;99.370;2023-04-23T05:47:52;56.73;;;45.83;;
12601;SDS011;30282;16.436;99.370;2023-04-23T05:50:21;51.40;;;45.77;;
12601;SDS011;30282;16.436;99.370;2023-04-23T05:52:53;55.67;;;44.23;;
12601;SDS011;30282;16.436;99.370;2023-04-23T05:55:25;62.53;;;45.60;;
12601;SDS011;30282;16.436;99.370;2023-04-23T05:57:54;59.70;;;45.60;;
12601;SDS011;30282;16.436;99.370;2023-04-23T06:00:25;58.53;;;44.47;;
12601;SDS011;30282;16.436;99.370;2023-04-23T06:02:57;48.90;;;42.07;;
12601;SDS011;30282;16.436;99.370;2023-04-23T06:05:26;53.83;;;45.17;;
12601;SDS011;30282;16.436;99.370;2023-04-23T06:07:55;50.70;;;45.20;;
12601;SDS011;30282;16.436;99.370;2023-04-23T06:10:24;51.57;;;42.87;;
12601;SDS011;30282;16.436;99.370;2023-04-23T06:12:54;50.37;;;44.70;;
12601;SDS011;30282;16.436;99.370;2023-04-23T06:15:27;56.70;;;44.30;;
12601;SDS011;30282;16.436;99.370;2023-04-23T06:17:57;57.40;;;47.10;;
12601;SDS011;30282;16.436;99.370;2023-04-23T06:20:26;55.03;;;44.73;;
12601;SDS011;30282;16.436;99.370;2023-04-23T06:22:55;53.87;;;45.93;;
12601;SDS011;30282;16.436;99.370;2023-04-23T06:25:24;52.53;;;46.10;;
12601;SDS011;30282;16.436;99.370;2023-04-23T06:27:53;62.27;;;45.40;;
12601;SDS011;30282;16.436;99.370;2023-04-23T06:30:27;52.43;;;46.90;;
12601;SDS011;30282;16.436;99.370;2023-04-23T06:32:56;52.07;;;46.57;;
12601;SDS011;30282;16.436;99.370;2023-04-23T06:35:25;51.60;;;46.13;;
12601;SDS011;30282;16.436;99.370;2023-04-23T06:37:55;56.03;;;46.90;;
12601;SDS011;30282;16.436;99.370;2023-04-23T06:40:24;50.47;;;45.27;;
12601;SDS011;30282;16.436;99.370;2023-04-23T06:42:53;48.07;;;43.03;;
12601;SDS011;30282;16.436;99.370;2023-04-23T06:45:22;56.13;;;44.27;;
12601;SDS011;30282;16.436;99.370;2023-04-23T06:47:56;51.60;;;44.80;;
12601;SDS011;30282;16.436;99.370;2023-04-23T06:50:25;52.37;;;46.53;;
12601;SDS011;30282;16.436;99.370;2023-04-23T06:52:54;48.83;;;43.73;;
12601;SDS011;30282;16.436;99.370;2023-04-23T06:55:23;50.40;;;43.90;;
12601;SDS011;30282;16.436;99.370;2023-04-23T06:57:53;52.47;;;45.00;;
12601;SDS011;30282;16.436;99.370;2023-04-23T07:00:23;68.93;;;42.90;;
12601;SDS011;30282;16.436;99.370;2023-04-23T07:02:56;53.97;;;45.40;;
12601;SDS011;30282;16.436;99.370;2023-04-23T07:05:26;51.03;;;42.20;;
12601;SDS011;30282;16.436;99.370;2023-04-23T07:07:55;48.27;;;42.93;;
12601;SDS011;30282;16.436;99.370;2023-04-23T07:10:24;49.63;;;44.27;;
12601;SDS011;30282;16.436;99.370;2023-04-23T07:13:00;58.10;;;43.30;;
12601;SDS011;30282;16.436;99.370;2023-04-23T07:15:31;48.40;;;42.93;;
12601;SDS011;30282;16.436;99.370;2023-04-23T07:18:00;51.23;;;43.60;;
12601;SDS011;30282;16.436;99.370;2023-04-23T07:20:29;52.20;;;44.07;;
12601;SDS011;30282;16.436;99.370;2023-04-23T07:22:58;57.23;;;45.03;;
12601;SDS011;30282;16.436;99.370;2023-04-23T07:25:28;55.30;;;44.10;;
12601;SDS011;30282;16.436;99.370;2023-04-23T07:27:58;47.73;;;42.87;;
12601;SDS011;30282;16.436;99.370;2023-04-23T07:30:27;51.57;;;44.33;;
12601;SDS011;30282;16.436;99.370;2023-04-23T07:32:57;48.77;;;43.67;;
12601;SDS011;30282;16.436;99.370;2023-04-23T07:35:27;62.37;;;43.63;;
12601;SDS011;30282;16.436;99.370;2023-04-23T07:37:56;52.63;;;43.27;;
12601;SDS011;30282;16.436;99.370;2023-04-23T07:40:25;66.63;;;45.43;;
12601;SDS011;30282;16.436;99.370;2023-04-23T07:42:54;49.83;;;41.80;;
12601;SDS011;30282;16.436;99.370;2023-04-23T07:45:24;58.13;;;45.17;;
12601;SDS011;30282;16.436;99.370;2023-04-23T07:47:58;49.57;;;44.20;;
12601;SDS011;30282;16.436;99.370;2023-04-23T07:50:27;45.87;;;40.77;;
12601;SDS011;30282;16.436;99.370;2023-04-23T07:52:57;60.30;;;44.13;;
12601;SDS011;30282;16.436;99.370;2023-04-23T07:55:26;47.77;;;42.57;;
12601;SDS011;30282;16.436;99.370;2023-04-23T07:57:55;56.30;;;43.23;;
12601;SDS011;30282;16.436;99.370;2023-04-23T08:00:24;54.07;;;45.40;;
12601;SDS011;30282;16.436;99.370;2023-04-23T08:02:54;52.97;;;44.77;;
12601;SDS011;30282;16.436;99.370;2023-04-23T08:05:24;49.10;;;42.70;;
12601;SDS011;30282;16.436;99.370;2023-04-23T08:07:54;56.03;;;42.33;;
12601;SDS011;30282;16.436;99.370;2023-04-23T08:10:23;48.50;;;43.13;;
12601;SDS011;30282;16.436;99.370;2023-04-23T08:12:54;57.27;;;46.27;;
12601;SDS011;30282;16.436;99.370;2023-04-23T08:15:24;52.87;;;45.07;;
12601;SDS011;30282;16.436;99.370;2023-04-23T08:17:53;52.87;;;46.33;;
12601;SDS011;30282;16.436;99.370;2023-04-23T08:20:24;55.07;;;45.33;;
12601;SDS011;30282;16.436;99.370;2023-04-23T08:22:56;49.80;;;44.60;;
12601;SDS011;30282;16.436;99.370;2023-04-23T08:25:25;51.30;;;44.47;;
12601;SDS011;30282;16.436;99.370;2023-04-23T08:27:57;50.27;;;44.50;;
12601;SDS011;30282;16.436;99.370;2023-04-23T08:30:27;54.87;;;45.20;;
12601;SDS011;30282;16.436;99.370;2023-04-23T08:32:56;58.07;;;45.77;;
12601;SDS011;30282;16.436;99.370;2023-04-23T08:35:26;58.47;;;47.03;;
12601;SDS011;30282;16.436;99.370;2023-04-23T08:37:55;52.77;;;46.80;;
12601;SDS011;30282;16.436;99.370;2023-04-23T08:40:25;53.37;;;47.17;;
12601;SDS011;30282;16.436;99.370;2023-04-23T08:43:01;69.73;;;56.90;;
12601;SDS011;30282;16.436;99.370;2023-04-23T08:45:30;57.10;;;50.00;;
12601;SDS011;30282;16.436;99.370;2023-04-23T08:48:06;63.00;;;52.10;;
12601;SDS011;30282;16.436;99.370;2023-04-23T08:50:38;55.07;;;49.27;;
12601;SDS011;30282;16.436;99.370;2023-04-23T08:53:13;67.87;;;55.50;;
12601;SDS011;30282;16.436;99.370;2023-04-23T08:55:46;68.33;;;52.83;;
12601;SDS011;30282;16.436;99.370;2023-04-23T08:58:17;54.00;;;48.57;;
12601;SDS011;30282;16.436;99.370;2023-04-23T09:00:46;69.00;;;49.77;;
12601;SDS011;30282;16.436;99.370;2023-04-23T09:03:18;62.23;;;51.43;;
12601;SDS011;30282;16.436;99.370;2023-04-23T09:05:50;58.57;;;51.57;;
12601;SDS011;30282;16.436;99.370;2023-04-23T09:08:19;61.70;;;50.90;;
12601;SDS011;30282;16.436;99.370;2023-04-23T09:10:49;54.77;;;48.80;;
12601;SDS011;30282;16.436;99.370;2023-04-23T09:13:20;57.23;;;51.10;;
12601;SDS011;30282;16.436;99.370;2023-04-23T09:15:49;64.40;;;51.40;;
12601;SDS011;30282;16.436;99.370;2023-04-23T09:18:18;67.93;;;50.20;;
12601;SDS011;30282;16.436;99.370;2023-04-23T09:20:47;73.00;;;49.53;;
12601;SDS011;30282;16.436;99.370;2023-04-23T09:23:20;64.57;;;51.27;;
12601;SDS011;30282;16.436;99.370;2023-04-23T09:25:49;70.60;;;49.60;;
12601;SDS011;30282;16.436;99.370;2023-04-23T09:28:18;63.30;;;51.90;;
12601;SDS011;30282;16.436;99.370;2023-04-23T09:30:48;66.70;;;51.80;;
12601;SDS011;30282;16.436;99.370;2023-04-23T09:33:17;65.17;;;51.20;;
12601;SDS011;30282;16.436;99.370;2023-04-23T09:35:46;66.77;;;50.47;;
12601;SDS011;30282;16.436;99.370;2023-04-23T09:38:19;78.77;;;65.73;;
12601;SDS011;30282;16.436;99.370;2023-04-23T09:40:49;97.80;;;75.50;;
12601;SDS011;30282;16.436;99.370;2023-04-23T09:43:18;130.17;;;91.70;;
12601;SDS011;30282;16.436;99.370;2023-04-23T09:45:47;139.13;;;97.47;;
12601;SDS011;30282;16.436;99.370;2023-04-23T09:48:16;164.77;;;126.57;;
12601;SDS011;30282;16.436;99.370;2023-04-23T09:50:47;143.10;;;118.67;;
12601;SDS011;30282;16.436;99.370;2023-04-23T09:53:16;149.90;;;119.43;;
12601;SDS011;30282;16.436;99.370;2023-04-23T09:55:49;109.87;;;89.00;;
12601;SDS011;30282;16.436;99.370;2023-04-23T09:58:20;94.33;;;79.67;;
12601;SDS011;30282;16.436;99.370;2023-04-23T10:00:52;92.57;;;72.57;;
12601;SDS011;30282;16.436;99.370;2023-04-23T10:03:33;90.33;;;75.30;;
12601;SDS011;30282;16.436;99.370;2023-04-23T10:06:02;112.63;;;90.70;;
12601;SDS011;30282;16.436;99.370;2023-04-23T10:08:33;107.70;;;89.67;;
12601;SDS011;30282;16.436;99.370;2023-04-23T10:11:04;116.00;;;88.67;;
12601;SDS011;30282;16.436;99.370;2023-04-23T10:13:34;104.67;;;78.17;;
12601;SDS011;30282;16.436;99.370;2023-04-23T10:16:05;95.27;;;79.00;;
12601;SDS011;30282;16.436;99.370;2023-04-23T10:18:37;90.87;;;71.43;;
12601;SDS011;30282;16.436;99.370;2023-04-23T10:21:06;88.10;;;68.27;;
12601;SDS011;30282;16.436;99.370;2023-04-23T10:23:43;79.80;;;65.13;;
12601;SDS011;30282;16.436;99.370;2023-04-23T10:26:14;73.77;;;65.30;;
12601;SDS011;30282;16.436;99.370;2023-04-23T10:28:54;73.60;;;65.43;;
12601;SDS011;30282;16.436;99.370;2023-04-23T10:31:26;80.63;;;66.30;;
12601;SDS011;30282;16.436;99.370;2023-04-23T10:33:58;89.43;;;71.77;;
12601;SDS011;30282;16.436;99.370;2023-04-23T10:36:30;107.20;;;79.00;;
12601;SDS011;30282;16.436;99.370;2023-04-23T10:39:02;112.90;;;87.03;;
12601;SDS011;30282;16.436;99.370;2023-04-23T10:41:34;151.33;;;95.77;;
12601;SDS011;30282;16.436;99.370;2023-04-23T10:44:05;129.00;;;87.13;;
12601;SDS011;30282;16.436;99.370;2023-04-23T10:46:37;118.07;;;85.43;;
12601;SDS011;30282;16.436;99.370;2023-04-23T10:49:16;91.40;;;38.27;;
12601;SDS011;30282;16.436;99.370;2023-04-23T10:51:46;83.13;;;28.40;;
12601;SDS011;30282;16.436;99.370;2023-04-23T11:05:24;53.43;;;23.30;;
12601;SDS011;30282;16.436;99.370;2023-04-23T11:08:03;62.23;;;23.17;;
12601;SDS011;30282;16.436;99.370;2023-04-23T11:10:45;51.93;;;26.07;;
12601;SDS011;30282;16.436;99.370;2023-04-23T11:13:22;40.23;;;25.73;;
12601;SDS011;30282;16.436;99.370;2023-04-23T11:19:01;35.10;;;28.57;;
12601;SDS011;30282;16.436;99.370;2023-04-23T11:24:29;49.20;;;32.17;;
12601;SDS011;30282;16.436;99.370;2023-04-23T11:26:59;39.17;;;29.83;;
12601;SDS011;30282;16.436;99.370;2023-04-23T11:29:28;34.80;;;27.43;;
12601;SDS011;30282;16.436;99.370;2023-04-23T11:31:57;41.53;;;31.27;;
12601;SDS011;30282;16.436;99.370;2023-04-23T11:34:27;66.70;;;29.50;;
12601;SDS011;30282;16.436;99.370;2023-04-23T11:36:57;45.00;;;30.00;;
12601;SDS011;30282;16.436;99.370;2023-04-23T11:39:29;48.47;;;29.30;;
12601;SDS011;30282;16.436;99.370;2023-04-23T11:41:59;36.87;;;28.73;;
12601;SDS011;30282;16.436;99.370;2023-04-23T11:44:31;31.97;;;25.80;;
12601;SDS011;30282;16.436;99.370;2023-04-23T11:47:00;38.37;;;24.97;;
12601;SDS011;30282;16.436;99.370;2023-04-23T11:49:29;33.67;;;23.00;;
12601;SDS011;30282;16.436;99.370;2023-04-23T11:52:00;28.40;;;23.23;;
12601;SDS011;30282;16.436;99.370;2023-04-23T11:54:30;33.40;;;22.67;;
12601;SDS011;30282;16.436;99.370;2023-04-23T11:56:59;35.50;;;21.27;;
12601;SDS011;30282;16.436;99.370;2023-04-23T11:59:29;32.97;;;21.40;;
12601;SDS011;30282;16.436;99.370;2023-04-23T12:01:58;30.10;;;21.77;;
12601;SDS011;30282;16.436;99.370;2023-04-23T12:04:30;28.13;;;20.60;;
12601;SDS011;30282;16.436;99.370;2023-04-23T12:07:01;37.17;;;23.53;;
12601;SDS011;30282;16.436;99.370;2023-04-23T12:09:32;26.67;;;22.17;;
12601;SDS011;30282;16.436;99.370;2023-04-23T12:12:05;34.83;;;22.67;;
12601;SDS011;30282;16.436;99.370;2023-04-23T12:14:34;36.03;;;22.40;;
12601;SDS011;30282;16.436;99.370;2023-04-23T12:17:08;32.73;;;24.27;;
12601;SDS011;30282;16.436;99.370;2023-04-23T12:19:38;35.30;;;25.33;;
12601;SDS011;30282;16.436;99.370;2023-04-23T12:22:12;28.90;;;21.57;;
12601;SDS011;30282;16.436;99.370;2023-04-23T12:24:44;29.73;;;22.40;;
12601;SDS011;30282;16.436;99.370;2023-04-23T12:27:17;26.90;;;22.93;;
12601;SDS011;30282;16.436;99.370;2023-04-23T12:29:47;34.73;;;28.20;;
12601;SDS011;30282;16.436;99.370;2023-04-23T12:32:26;39.53;;;28.57;;
12601;SDS011;30282;16.436;99.370;2023-04-23T12:34:55;41.50;;;29.27;;
12601;SDS011;30282;16.436;99.370;2023-04-23T12:37:27;34.70;;;27.10;;
12601;SDS011;30282;16.436;99.370;2023-04-23T12:39:57;34.27;;;24.80;;
12601;SDS011;30282;16.436;99.370;2023-04-23T12:42:26;37.77;;;25.20;;
12601;SDS011;30282;16.436;99.370;2023-04-23T12:45:03;32.67;;;25.70;;
12601;SDS011;30282;16.436;99.370;2023-04-23T12:47:33;34.00;;;24.37;;
12601;SDS011;30282;16.436;99.370;2023-04-23T12:50:05;39.63;;;25.13;;
12601;SDS011;30282;16.436;99.370;2023-04-23T12:52:37;34.17;;;26.83;;
12601;SDS011;30282;16.436;99.370;2023-04-23T12:55:06;47.27;;;26.20;;
12601;SDS011;30282;16.436;99.370;2023-04-23T12:57:38;35.63;;;24.30;;
12601;SDS011;30282;16.436;99.370;2023-04-23T13:00:08;30.10;;;22.70;;
12601;SDS011;30282;16.436;99.370;2023-04-23T13:02:38;31.03;;;22.93;;
12601;SDS011;30282;16.436;99.370;2023-04-23T13:05:07;30.33;;;22.83;;
12601;SDS011;30282;16.436;99.370;2023-04-23T13:07:38;28.87;;;22.93;;
12601;SDS011;30282;16.436;99.370;2023-04-23T13:10:08;28.13;;;21.93;;
12601;SDS011;30282;16.436;99.370;2023-04-23T13:12:38;27.83;;;21.57;;
12601;SDS011;30282;16.436;99.370;2023-04-23T13:15:07;30.13;;;23.00;;
12601;SDS011;30282;16.436;99.370;2023-04-23T13:17:40;30.13;;;21.97;;
12601;SDS011;30282;16.436;99.370;2023-04-23T13:20:17;28.20;;;22.13;;
12601;SDS011;30282;16.436;99.370;2023-04-23T13:22:50;30.43;;;23.77;;
12601;SDS011;30282;16.436;99.370;2023-04-23T13:25:19;35.63;;;23.13;;
12601;SDS011;30282;16.436;99.370;2023-04-23T13:27:51;27.73;;;22.20;;
12601;SDS011;30282;16.436;99.370;2023-04-23T13:30:20;29.70;;;20.90;;
12601;SDS011;30282;16.436;99.370;2023-04-23T13:32:50;26.00;;;20.10;;
12601;SDS011;30282;16.436;99.370;2023-04-23T13:35:20;25.93;;;21.10;;
12601;SDS011;30282;16.436;99.370;2023-04-23T13:37:51;26.93;;;20.37;;
12601;SDS011;30282;16.436;99.370;2023-04-23T13:40:22;37.10;;;22.17;;
12601;SDS011;30282;16.436;99.370;2023-04-23T13:42:53;30.93;;;22.83;;
12601;SDS011;30282;16.436;99.370;2023-04-23T13:45:22;35.07;;;23.97;;
12601;SDS011;30282;16.436;99.370;2023-04-23T13:47:53;33.30;;;23.77;;
12601;SDS011;30282;16.436;99.370;2023-04-23T13:50:27;30.67;;;24.33;;
12601;SDS011;30282;16.436;99.370;2023-04-23T13:52:58;35.03;;;24.90;;
12601;SDS011;30282;16.436;99.370;2023-04-23T13:55:29;41.47;;;28.87;;
12601;SDS011;30282;16.436;99.370;2023-04-23T13:57:58;43.20;;;30.37;;
12601;SDS011;30282;16.436;99.370;2023-04-23T14:00:28;47.33;;;30.33;;
12601;SDS011;30282;16.436;99.370;2023-04-23T14:02:57;40.10;;;31.03;;
12601;SDS011;30282;16.436;99.370;2023-04-23T14:05:27;40.73;;;33.13;;
12601;SDS011;30282;16.436;99.370;2023-04-23T14:07:57;55.23;;;35.47;;
12601;SDS011;30282;16.436;99.370;2023-04-23T14:10:27;44.53;;;34.37;;
12601;SDS011;30282;16.436;99.370;2023-04-23T14:12:59;51.80;;;35.23;;
12601;SDS011;30282;16.436;99.370;2023-04-23T14:15:29;49.00;;;36.77;;
12601;SDS011;30282;16.436;99.370;2023-04-23T14:17:58;49.20;;;36.27;;
12601;SDS011;30282;16.436;99.370;2023-04-23T14:20:27;53.63;;;36.37;;
12601;SDS011;30282;16.436;99.370;2023-04-23T14:23:01;49.67;;;37.17;;
12601;SDS011;30282;16.436;99.370;2023-04-23T14:25:39;49.10;;;36.07;;
12601;SDS011;30282;16.436;99.370;2023-04-23T14:28:21;55.30;;;35.13;;
12601;SDS011;30282;16.436;99.370;2023-04-23T14:30:55;49.57;;;35.97;;
12601;SDS011;30282;16.436;99.370;2023-04-23T14:33:25;49.17;;;35.73;;
12601;SDS011;30282;16.436;99.370;2023-04-23T14:35:54;60.67;;;35.70;;
12601;SDS011;30282;16.436;99.370;2023-04-23T14:38:25;50.00;;;35.90;;
12601;SDS011;30282;16.436;99.370;2023-04-23T14:40:54;53.83;;;36.37;;
12601;SDS011;30282;16.436;99.370;2023-04-23T14:43:24;42.90;;;33.73;;